Asia Ruby III — 9V2666 — position and weather

sailwx.info

Track history (hours):
 
Tides and Currents Weather Stations Pressure Air Temp Water Temp Dewpoint Dewpoint Depression Visibility Wind Speed Wind Dir Waves Ship Positions

Asia Ruby III

Last reported at 2017-Dec-12 08:07 UTC. Time now 2018-Jan-23 00:06 UTC.
Position N 33°53' E 025°36'.
Warning: this ship's position is 41 days out of date.

Length 200 m; draft 10.9 m.

Type: Cargo ship. MMSI: 564511000.

Date/timePositionNaut miles runAvg speedWind from/ knotsBaromVisibWave heightAir tempDewpointWater temp
2017-Dec-12 08:07N 33°53' E 025°36'55513.1
2017-Dec-10 13:40N 36°15' E 014°40'213.7
2017-Dec-10 13:30N 36°15' E 014°38'713.3
2017-Dec-10 13:00N 36°17' E 014°30'713.2
2017-Dec-10 12:30N 36°20' E 014°22'713.1
2017-Dec-10 12:00N 36°22' E 014°14'612.9
2017-Dec-10 11:30N 36°25' E 014°07'613.0
2017-Dec-10 11:00N 36°27' E 013°60'713.1
2017-Dec-10 10:29N 36°29' E 013°52'613.0
2017-Dec-10 10:00N 36°31' E 013°44'63512.4
2017-Dec-08 06:55N 36°49' E 000°33'1012.7
2017-Dec-08 06:08N 36°47' E 000°21'212.7
2017-Dec-08 05:57N 36°47' E 000°18'812.6
2017-Dec-08 05:20N 36°45' E 000°08'  
Track history (hours):
 
Tides and Currents Weather Stations Pressure Air Temp Water Temp Dewpoint Dewpoint Depression Visibility Wind Speed Wind Dir Waves Ship Positions

Asia Ruby III

Last reported at 2017-Dec-12 08:07 UTC. Time now 2018-Jan-23 00:06 UTC.
Position N 33°53' E 025°36'.
Warning: this ship's position is 41 days out of date.

Length 200 m; draft 10.9 m.

Type: Cargo ship. MMSI: 564511000.

Date/timePositionNaut miles runAvg speedWind from/ knotsBaromVisibWave heightAir tempDewpointWater temp
2017-Dec-12 08:07N 33°53' E 025°36'55513.1
2017-Dec-10 13:40N 36°15' E 014°40'213.7
2017-Dec-10 13:30N 36°15' E 014°38'713.3
2017-Dec-10 13:00N 36°17' E 014°30'713.2
2017-Dec-10 12:30N 36°20' E 014°22'713.1
2017-Dec-10 12:00N 36°22' E 014°14'612.9
2017-Dec-10 11:30N 36°25' E 014°07'613.0
2017-Dec-10 11:00N 36°27' E 013°60'713.1
2017-Dec-10 10:29N 36°29' E 013°52'613.0
2017-Dec-10 10:00N 36°31' E 013°44'63512.4
2017-Dec-08 06:55N 36°49' E 000°33'1012.7
2017-Dec-08 06:08N 36°47' E 000°21'212.7
2017-Dec-08 05:57N 36°47' E 000°18'812.6
2017-Dec-08 05:20N 36°45' E 000°08'  

Dump ship's entire track history